createdAt,value
2019-01-09T00:02:35.397Z,54.09
2019-01-09T00:07:00.436Z,53.50
2019-01-09T00:11:18.218Z,53.36
2019-01-09T00:15:43.301Z,52.79
2019-01-09T00:19:59.376Z,52.62
2019-01-09T00:28:53.486Z,52.08
2019-01-09T00:33:10.985Z,51.28
2019-01-09T00:37:36.049Z,51.34
2019-01-09T00:41:54.080Z,50.06
2019-01-09T00:46:11.906Z,50.39
2019-01-09T00:50:36.972Z,49.98
2019-01-09T00:54:54.637Z,50.13
2019-01-09T00:59:19.654Z,51.45
2019-01-09T01:03:41.670Z,51.96
2019-01-09T01:08:29.172Z,52.42
2019-01-09T01:13:05.941Z,53.12
2019-01-09T01:17:27.937Z,53.41
2019-01-09T01:22:15.363Z,53.23
2019-01-09T01:26:59.775Z,53.47
2019-01-09T01:36:39.417Z,52.76
2019-01-09T01:41:23.386Z,54.19
2019-01-09T01:46:26.975Z,54.81
2019-01-09T01:51:12.769Z,54.78
2019-01-09T01:55:58.589Z,55.61
2019-01-09T02:00:42.601Z,56.28
2019-01-09T02:05:46.184Z,57.54
2019-01-09T02:21:40.065Z,57.67
2019-01-09T02:26:25.921Z,56.97
2019-01-09T02:31:03.108Z,56.10
2019-01-09T02:35:28.165Z,54.79
2019-01-09T02:39:45.840Z,55.82
2019-01-09T02:44:06.785Z,55.84
2019-01-09T02:48:24.825Z,56.12
2019-01-09T02:52:49.851Z,56.87
2019-01-09T02:57:07.447Z,55.34
2019-01-09T03:01:32.466Z,55.11
2019-01-09T03:05:50.329Z,55.39
2019-01-09T03:14:52.334Z,54.48
2019-01-09T03:19:10.627Z,55.14
2019-01-09T03:23:29.030Z,56.05
2019-01-09T03:27:54.048Z,56.76
2019-01-09T03:32:11.767Z,56.22
2019-01-09T03:36:36.876Z,55.50
2019-01-09T03:40:54.478Z,55.17
2019-01-09T03:49:56.642Z,55.86
2019-01-09T03:54:14.805Z,56.67
2019-01-09T03:58:39.832Z,57.86
2019-01-09T04:02:57.759Z,55.46
2019-01-09T04:07:22.789Z,55.32
2019-01-09T04:11:40.689Z,54.96
2019-01-09T04:16:05.706Z,56.30
2019-01-09T04:20:21.764Z,55.32
2019-01-09T04:29:16.693Z,55.68
2019-01-09T04:33:34.374Z,55.01
2019-01-09T04:42:45.115Z,54.90
2019-01-09T04:47:01.049Z,54.31
2019-01-09T04:51:19.118Z,55.53
2019-01-09T04:55:37.324Z,54.48
2019-01-09T04:59:55.333Z,55.17
2019-01-09T05:04:20.379Z,55.67
2019-01-09T05:08:37.998Z,54.71
2019-01-09T05:17:39.430Z,53.70
2019-01-09T05:21:57.194Z,53.86
2019-01-09T05:26:22.220Z,53.04
2019-01-09T05:30:40.548Z,54.26
2019-01-09T05:35:16.712Z,54.51
2019-01-09T05:44:17.977Z,56.21
2019-01-09T05:48:35.487Z,54.36
2019-01-09T05:52:53.285Z,53.37
2019-01-09T05:57:18.310Z,54.82
2019-01-09T06:01:35.965Z,52.89
2019-01-09T06:10:37.470Z,53.98
2019-01-09T06:14:54.920Z,55.16
2019-01-09T06:19:12.567Z,56.76
2019-01-09T06:23:37.582Z,54.57
2019-01-09T06:27:55.681Z,56.60
2019-01-09T06:32:13.379Z,56.69
2019-01-09T06:36:30.867Z,56.68
2019-01-09T06:45:32.406Z,56.71
2019-01-09T06:49:50.251Z,57.70
2019-01-09T06:54:15.302Z,56.53
2019-01-09T06:58:33.690Z,55.80
2019-01-09T07:02:58.711Z,54.56
2019-01-09T07:07:16.111Z,58.59
2019-01-09T07:11:41.118Z,56.18
2019-01-09T07:15:59.405Z,56.40
2019-01-09T07:25:03.263Z,56.94
2019-01-09T07:29:22.402Z,55.61
2019-01-09T07:33:40.649Z,57.73
2019-01-09T07:38:05.647Z,55.52
2019-01-09T07:42:23.536Z,56.23
2019-01-09T07:46:48.573Z,57.18
2019-01-09T07:51:06.408Z,57.62
2019-01-09T07:55:31.437Z,54.30
2019-01-09T07:59:49.092Z,55.25
2019-01-09T08:08:56.013Z,54.82
2019-01-09T08:13:21.040Z,53.51
2019-01-09T08:17:38.793Z,53.57
2019-01-09T08:22:04.864Z,52.87
2019-01-09T08:26:24.577Z,55.71
2019-01-09T08:30:43.028Z,54.43
2019-01-09T08:35:00.747Z,55.64
2019-01-09T08:44:02.625Z,58.35
2019-01-09T08:48:20.345Z,58.27
2019-01-09T08:52:45.361Z,56.22
2019-01-09T08:57:03.564Z,55.40
2019-01-09T09:01:28.572Z,52.56
2019-01-09T09:05:46.691Z,54.71
2019-01-09T09:10:32.521Z,58.27
2019-01-09T09:14:50.404Z,58.05
2019-01-09T09:19:15.852Z,55.53
2019-01-09T09:23:38.210Z,55.61
2019-01-09T09:28:03.280Z,56.70
2019-01-09T09:32:21.343Z,56.39
2019-01-09T09:36:46.366Z,54.51
2019-01-09T09:41:21.312Z,53.51
2019-01-09T09:50:22.958Z,52.27
2019-01-09T09:54:38.967Z,55.22
2019-01-09T10:03:46.121Z,52.27
2019-01-09T10:08:11.159Z,51.90
2019-01-09T10:12:27.299Z,53.33
2019-01-09T10:21:28.438Z,52.58
2019-01-09T10:25:46.785Z,52.79
2019-01-09T10:30:09.005Z,52.78
2019-01-09T10:34:27.172Z,53.07
2019-01-09T10:43:28.589Z,52.27
2019-01-09T10:47:46.346Z,53.82
2019-01-09T10:52:11.369Z,52.29
2019-01-09T10:56:28.992Z,54.08
2019-01-09T11:00:54.016Z,52.06
2019-01-09T11:05:12.158Z,52.94
2019-01-09T11:09:37.179Z,51.14
2019-01-09T11:13:55.240Z,52.16
2019-01-09T11:18:21.247Z,50.18
2019-01-09T11:22:39.293Z,51.47
2019-01-09T11:31:33.870Z,49.95
2019-01-09T11:35:51.395Z,48.69
2019-01-09T11:40:37.201Z,54.45
2019-01-09T11:44:55.109Z,54.20
2019-01-09T11:49:20.137Z,53.47
2019-01-09T11:53:37.770Z,52.90
2019-01-09T11:58:02.817Z,53.28
2019-01-09T12:06:53.006Z,52.53
2019-01-09T12:15:48.135Z,53.40
2019-01-09T12:19:53.821Z,52.32
2019-01-09T12:23:59.491Z,50.29
2019-01-09T12:28:05.244Z,44.23
2019-01-09T12:32:10.952Z,43.51
2019-01-09T12:36:16.653Z,45.24
2019-01-09T12:40:22.427Z,44.36
2019-01-09T12:44:28.105Z,38.83
2019-01-09T12:48:33.828Z,40.21
2019-01-09T12:52:39.520Z,40.80
2019-01-09T12:56:45.223Z,43.00
2019-01-09T13:01:10.320Z,46.26
2019-01-09T13:05:27.986Z,50.51
2019-01-09T13:09:53.009Z,49.83
2019-01-09T13:14:08.829Z,50.32
2019-01-09T13:18:33.867Z,49.68
2019-01-09T13:22:51.529Z,51.06
2019-01-09T13:27:16.555Z,53.28
2019-01-09T13:31:34.380Z,56.19
2019-01-09T13:40:36.049Z,54.95
2019-01-09T13:44:54.179Z,54.33
2019-01-09T13:58:32.834Z,53.13
2019-01-09T14:02:50.359Z,54.52
2019-01-09T14:07:15.351Z,55.44
2019-01-09T14:11:37.817Z,54.32
2019-01-09T14:16:02.916Z,52.77
2019-01-09T14:20:24.090Z,52.58
2019-01-09T14:24:49.123Z,54.81
2019-01-09T14:29:05.520Z,55.45
2019-01-09T14:33:23.400Z,53.72
2019-01-09T14:38:07.547Z,56.24
2019-01-09T14:42:25.771Z,55.57
2019-01-09T14:46:50.801Z,56.31
2019-01-09T14:51:08.754Z,52.30
2019-01-09T14:55:33.781Z,53.17
2019-01-09T14:59:51.798Z,53.64
2019-01-09T15:09:14.299Z,56.64
2019-01-09T15:13:35.407Z,54.54
2019-01-09T15:18:00.522Z,56.06
2019-01-09T15:22:18.541Z,54.44
2019-01-09T15:31:30.884Z,53.86
2019-01-09T15:35:48.401Z,56.91
2019-01-09T15:40:34.188Z,55.26
2019-01-09T15:44:51.977Z,57.67
2019-01-09T15:49:17.046Z,53.43
2019-01-09T15:53:33.108Z,58.60
2019-01-09T15:57:58.237Z,56.09
2019-01-09T16:02:16.160Z,56.53
2019-01-09T16:06:34.518Z,52.72
2019-01-09T16:10:52.279Z,57.08
2019-01-09T16:15:38.083Z,54.45
2019-01-09T16:19:56.050Z,54.14
2019-01-09T16:24:21.097Z,56.28
2019-01-09T16:28:39.265Z,54.77
2019-01-09T16:32:56.792Z,57.49
2019-01-09T16:37:14.624Z,56.83
2019-01-09T16:41:39.740Z,57.57
2019-01-09T16:45:57.744Z,55.29
2019-01-09T16:50:42.821Z,56.35
2019-01-09T16:55:00.410Z,56.03
2019-01-09T16:59:17.999Z,55.75
2019-01-09T17:03:35.777Z,57.84
2019-01-09T17:08:12.427Z,56.52
2019-01-09T17:12:37.513Z,56.15
2019-01-09T17:16:55.231Z,55.41
2019-01-09T17:25:56.888Z,59.39
2019-01-09T17:30:18.899Z,59.43
2019-01-09T17:34:43.919Z,57.26
2019-01-09T17:39:10.506Z,55.63
2019-01-09T17:43:35.902Z,54.98
2019-01-09T17:47:53.314Z,55.20
2019-01-09T17:52:18.348Z,53.49
2019-01-09T17:56:36.468Z,59.13
2019-01-09T18:00:52.519Z,56.99
2019-01-09T18:09:57.208Z,54.15
2019-01-09T18:14:14.961Z,56.02
2019-01-09T18:23:14.866Z,58.50
2019-01-09T18:27:39.863Z,54.91
2019-01-09T18:32:01.824Z,56.18
2019-01-09T18:37:05.649Z,53.57
2019-01-09T18:41:25.068Z,55.89
2019-01-09T18:46:10.907Z,53.53
2019-01-09T18:50:30.172Z,55.34
2019-01-09T18:54:48.099Z,54.51
2019-01-09T18:59:05.639Z,55.62
2019-01-09T19:03:30.731Z,59.00
2019-01-09T19:07:55.671Z,55.15
2019-01-09T19:12:20.753Z,55.11
2019-01-09T19:16:39.027Z,54.60
2019-01-09T19:21:04.136Z,54.96
2019-01-09T19:25:20.162Z,56.75
2019-01-09T19:29:45.183Z,55.71
2019-01-09T19:34:03.460Z,54.58
2019-01-09T19:39:07.119Z,58.79
2019-01-09T19:43:25.000Z,55.18
2019-01-09T19:52:07.935Z,55.39
2019-01-09T19:56:13.921Z,56.22
2019-01-09T20:00:23.444Z,57.14
2019-01-09T20:04:29.210Z,56.52
2019-01-09T20:08:41.033Z,55.85
2019-01-09T20:12:46.820Z,55.47
2019-01-09T20:16:52.660Z,57.89
2019-01-09T20:20:58.576Z,60.16
2019-01-09T20:25:05.985Z,56.06
2019-01-09T20:29:11.755Z,55.43
2019-01-09T20:33:17.497Z,55.35
2019-01-09T20:37:23.178Z,53.49
2019-01-09T20:41:35.155Z,57.11
2019-01-09T20:45:36.464Z,55.52
2019-01-09T20:49:42.275Z,56.33
2019-01-09T20:53:48.382Z,55.66
2019-01-09T20:57:54.356Z,56.18
2019-01-09T21:02:00.134Z,54.95
2019-01-09T21:06:06.664Z,52.34
2019-01-09T21:10:16.134Z,52.45
2019-01-09T21:14:22.041Z,57.49
2019-01-09T21:18:28.157Z,59.75
2019-01-09T21:22:33.874Z,53.48
2019-01-09T21:26:41.343Z,51.56
2019-01-09T21:30:47.047Z,52.47
2019-01-09T21:34:52.748Z,54.09
2019-01-09T21:38:58.437Z,54.02
2019-01-09T21:43:04.201Z,53.56
2019-01-09T21:47:10.903Z,57.67
2019-01-09T21:51:16.565Z,53.29
2019-01-09T21:55:22.497Z,53.95
2019-01-09T21:59:28.265Z,51.83
2019-01-09T22:03:33.960Z,54.14
2019-01-09T22:07:39.741Z,52.09
2019-01-09T22:11:45.573Z,56.98
2019-01-09T22:15:51.329Z,53.83
2019-01-09T22:19:57.087Z,52.46
2019-01-09T22:24:02.851Z,55.75
2019-01-09T22:28:08.590Z,52.71
2019-01-09T22:32:14.272Z,55.95
2019-01-09T22:36:19.957Z,54.11
2019-01-09T22:40:25.746Z,55.44
2019-01-09T22:44:31.450Z,53.80
2019-01-09T22:48:37.165Z,53.31
2019-01-09T22:52:42.898Z,55.49
2019-01-09T22:56:48.657Z,52.43
2019-01-09T23:00:58.590Z,55.43
2019-01-09T23:05:05.194Z,58.24
2019-01-09T23:09:12.173Z,53.86
2019-01-09T23:13:18.028Z,53.81
2019-01-09T23:17:23.730Z,55.13
2019-01-09T23:21:29.498Z,55.81
2019-01-09T23:25:35.394Z,57.01
2019-01-09T23:29:41.172Z,54.38
2019-01-09T23:33:46.999Z,56.38
2019-01-09T23:37:52.696Z,56.62
2019-01-09T23:41:58.393Z,56.43
2019-01-09T23:46:04.698Z,55.65
2019-01-09T23:50:12.084Z,56.64
2019-01-09T23:54:17.755Z,56.12
2019-01-09T23:58:50.240Z,55.69
